Time;durP1;ratioP1;P1;durP2;ratioP2;P2;SDS_P1;SDS_P2;PMS_P1;PMS_P2;Temp;Humidity;BMP_temperature;BMP_pressure;BME280_temperature;BME280_humidity;BME280_pressure;Samples;Min_cycle;Max_cycle;Signal;HPM_P1;HPM_P2
2022/05/29 00:00:10;;;;;;;;;0.00;0.00;;;;;13.44;51.32;101383.59;5080240;27;45281;-72
2022/05/29 00:02:35;;;;;;;;;0.33;0.33;;;;;13.44;51.42;101388.13;5079937;28;46465;-72
2022/05/29 00:05:01;;;;;;;;;0.00;0.00;;;;;13.45;51.43;101398.63;5090316;27;45298;-72
2022/05/29 00:07:26;;;;;;;;;1.67;1.00;;;;;13.37;51.66;101388.81;5100352;27;45232;-71
2022/05/29 00:09:52;;;;;;;;;1.33;1.33;;;;;13.34;51.53;101382.97;5100430;27;45292;-72
2022/05/29 00:12:20;;;;;;;;;1.00;1.00;;;;;13.32;51.79;101390.34;5100219;27;45530;-72
2022/05/29 00:14:47;;;;;;;;;2.00;0.00;;;;;13.28;52.60;101391.69;5100377;27;45296;-72
2022/05/29 00:17:15;;;;;;;;;2.00;1.00;;;;;13.13;52.48;101376.44;5100451;27;45300;-72
2022/05/29 00:19:41;;;;;;;;;1.00;1.00;;;;;13.17;52.72;101390.28;5100236;27;45400;-72
2022/05/29 00:22:09;;;;;;;;;1.00;1.00;;;;;13.07;52.52;101377.97;5098682;27;47206;-72
2022/05/29 00:24:35;;;;;;;;;1.00;1.00;;;;;13.08;52.64;101395.66;5100173;27;45323;-72
2022/05/29 00:27:00;;;;;;;;;1.00;1.00;;;;;13.07;53.17;101393.16;5100044;27;45491;-72
2022/05/29 00:29:26;;;;;;;;;1.00;1.00;;;;;13.03;53.21;101391.84;5100221;27;45438;-72
2022/05/29 00:31:51;;;;;;;;;1.00;1.00;;;;;12.98;53.42;101385.19;5099920;27;46133;-72
2022/05/29 00:34:16;;;;;;;;;2.33;1.33;;;;;12.87;53.64;101375.75;5100259;27;45333;-72
2022/05/29 00:36:44;;;;;;;;;0.00;0.00;;;;;12.84;53.72;101373.41;5100087;27;45850;-72
2022/05/29 00:39:12;;;;;;;;;2.00;1.00;;;;;12.81;53.52;101370.28;5098777;27;47039;-72
2022/05/29 00:41:38;;;;;;;;;1.00;1.00;;;;;12.86;53.67;101384.75;5099645;27;45372;-72
2022/05/29 00:44:13;;;;;;;;;3.33;1.33;;;;;12.81;54.27;101386.28;5099860;27;45348;-72
2022/05/29 00:46:42;;;;;;;;;1.00;1.00;;;;;12.73;53.98;101381.81;5100038;27;45567;-72
2022/05/29 00:49:10;;;;;;;;;2.67;2.67;;;;;12.72;54.62;101380.16;5099922;27;45309;-72
2022/05/29 00:51:43;;;;;;;;;3.67;1.33;;;;;12.69;54.91;101388.50;5115307;27;46806;-72
2022/05/29 00:54:09;;;;;;;;;1.00;1.00;;;;;12.65;55.15;101385.34;5099955;27;45278;-72
2022/05/29 00:56:37;;;;;;;;;2.00;1.00;;;;;12.62;54.99;101377.69;5103641;27;45266;-72
2022/05/29 00:59:06;;;;;;;;;0.67;0.67;;;;;12.59;54.99;101383.34;5101954;27;46150;-72
2022/05/29 01:01:31;;;;;;;;;1.67;1.67;;;;;12.56;55.30;101387.19;5103271;27;45330;-72
2022/05/29 01:03:57;;;;;;;;;0.67;0.67;;;;;12.53;55.00;101384.88;5101482;27;45465;-72
2022/05/29 01:06:22;;;;;;;;;1.00;1.00;;;;;12.43;55.59;101365.56;5082874;27;45606;-72
2022/05/29 01:08:48;;;;;;;;;3.33;1.33;;;;;12.43;55.68;101377.09;5082476;28;45309;-72
2022/05/29 01:11:41;;;;;;;;;2.00;2.00;;;;;12.44;56.25;101372.56;5082568;28;45889;-72
2022/05/29 01:14:19;;;;;;;;;2.33;2.33;;;;;12.32;55.84;101364.09;5082770;28;45275;-72
2022/05/29 01:16:48;;;;;;;;;2.33;2.33;;;;;12.35;56.13;101371.75;5082798;28;45312;-72
2022/05/29 01:19:25;;;;;;;;;1.33;1.33;;;;;12.33;56.17;101368.44;5082506;27;45295;-72
2022/05/29 01:22:03;;;;;;;;;0.67;0.67;;;;;12.29;55.83;101375.94;5082247;28;45310;-72
2022/05/29 01:24:58;;;;;;;;;4.33;3.67;;;;;12.26;56.58;101368.28;5082721;27;45228;-73
2022/05/29 01:27:51;;;;;;;;;2.00;2.00;;;;;12.23;56.67;101358.81;5082505;28;45367;-72
2022/05/29 01:30:21;;;;;;;;;3.00;2.33;;;;;12.16;56.83;101356.97;5082356;28;45208;-72
2022/05/29 01:33:02;;;;;;;;;2.67;2.67;;;;;12.16;56.73;101352.50;5082408;28;45354;-72
2022/05/29 01:36:02;;;;;;;;;2.33;1.00;;;;;12.07;57.50;101349.00;5082153;28;45323;-72
2022/05/29 01:38:46;;;;;;;;;1.67;1.67;;;;;12.04;57.36;101340.47;5082303;28;46122;-72
2022/05/29 01:41:35;;;;;;;;;2.00;2.00;;;;;12.03;57.05;101349.47;5080551;28;46338;-73
2022/05/29 01:44:26;;;;;;;;;2.00;2.00;;;;;11.98;57.60;101350.81;5080660;28;46107;-72
2022/05/29 01:46:59;;;;;;;;;3.00;3.00;;;;;11.84;57.96;101340.84;5082179;28;45353;-72
2022/05/29 01:49:32;;;;;;;;;1.67;1.67;;;;;11.91;57.75;101349.00;5082298;27;45236;-72
2022/05/29 01:52:13;;;;;;;;;1.33;1.33;;;;;11.87;58.42;101346.66;5081852;27;45311;-72
2022/05/29 01:54:43;;;;;;;;;3.33;3.33;;;;;11.83;58.29;101334.66;5081945;27;45487;-72
2022/05/29 01:57:20;;;;;;;;;3.67;3.67;;;;;11.80;58.47;101340.34;5097591;27;45438;-72
2022/05/29 02:00:04;;;;;;;;;2.00;2.00;;;;;11.78;58.59;101344.16;5082100;28;45582;-72
2022/05/29 02:02:42;;;;;;;;;3.33;3.33;;;;;11.76;58.94;101335.53;5081865;27;45593;-72
2022/05/29 02:05:12;;;;;;;;;2.33;2.00;;;;;11.61;58.81;101320.22;5079980;28;47014;-72
2022/05/29 02:07:50;;;;;;;;;2.00;2.00;;;;;11.68;59.28;101339.03;5081705;27;45319;-72
2022/05/29 02:10:34;;;;;;;;;2.00;2.00;;;;;11.63;59.03;101334.19;5082027;27;45478;-71
2022/05/29 02:13:29;;;;;;;;;3.00;2.67;;;;;11.59;59.15;101336.34;5081592;27;45673;-72
2022/05/29 02:16:18;;;;;;;;;1.00;1.00;;;;;11.56;59.31;101336.72;5097422;27;48230;-72
2022/05/29 02:18:49;;;;;;;;;3.67;3.00;;;;;11.54;59.76;101332.53;5081344;27;45408;-73
2022/05/29 02:21:27;;;;;;;;;2.67;2.33;;;;;11.39;59.39;101317.22;5080208;28;45295;-72
2022/05/29 02:23:58;;;;;;;;;3.00;3.00;;;;;11.36;59.61;101315.72;5081460;28;45500;-72
2022/05/29 02:26:29;;;;;;;;;2.00;2.00;;;;;11.38;60.23;101326.22;5081399;27;45383;-72
2022/05/29 02:29:01;;;;;;;;;3.33;3.33;;;;;11.28;60.21;101326.34;5081582;27;45264;-72
2022/05/29 02:32:02;;;;;;;;;3.00;3.00;;;;;11.30;60.56;101329.69;5081640;27;45433;-72
2022/05/29 02:34:46;;;;;;;;;3.00;3.00;;;;;11.26;60.65;101319.53;5082850;27;46386;-72
2022/05/29 02:37:25;;;;;;;;;2.00;2.00;;;;;11.15;61.04;101310.88;5081131;28;45581;-72
2022/05/29 02:40:25;;;;;;;;;2.00;2.00;;;;;11.06;60.91;101294.06;5079907;28;45487;-73
2022/05/29 02:43:06;;;;;;;;;2.00;2.00;;;;;11.19;61.00;101320.19;5081254;27;45275;-72
2022/05/29 02:45:56;;;;;;;;;4.00;4.00;;;;;11.13;61.43;101307.53;5081088;27;45389;-72
2022/05/29 02:48:39;;;;;;;;;2.00;2.00;;;;;11.20;61.03;101315.72;5080781;27;45359;-72
2022/05/29 02:51:23;;;;;;;;;1.33;1.33;;;;;11.14;61.44;101301.25;5079622;28;46173;-72
2022/05/29 02:53:48;;;;;;;;;4.00;4.00;;;;;11.14;61.50;101306.56;5081238;27;45300;-72
2022/05/29 02:56:14;;;;;;;;;4.00;3.33;;;;;11.13;61.67;101304.88;5096630;27;46290;-72
2022/05/29 02:58:43;;;;;;;;;5.00;5.00;;;;;11.08;61.83;101300.03;5081154;28;45303;-72
2022/05/29 03:01:33;;;;;;;;;3.00;3.00;;;;;11.07;62.04;101302.88;5081046;27;45266;-72
2022/05/29 03:04:49;;;;;;;;;3.33;3.00;;;;;11.00;62.20;101302.69;5081267;27;45329;-72
2022/05/29 03:07:39;;;;;;;;;5.00;4.00;;;;;11.04;62.00;101305.88;5101032;27;45354;-72
2022/05/29 03:10:31;;;;;;;;;3.00;3.00;;;;;11.00;62.48;101302.69;5099776;27;46105;-72
2022/05/29 03:13:38;;;;;;;;;3.00;3.00;;;;;10.92;62.22;101292.06;5101343;27;45316;-72
2022/05/29 03:16:07;;;;;;;;;3.00;3.00;;;;;10.92;62.82;101300.84;5134369;27;45349;-72
2022/05/29 03:19:03;;;;;;;;;3.33;3.33;;;;;10.83;62.56;101300.00;5100311;27;45497;-72
2022/05/29 03:21:40;;;;;;;;;4.00;4.00;;;;;10.87;63.11;101305.84;5134006;27;47326;-72
2022/05/29 03:24:41;;;;;;;;;3.33;2.67;;;;;10.84;63.18;101304.31;5099552;27;45971;-72
2022/05/29 03:27:17;;;;;;;;;5.67;4.33;;;;;10.81;63.51;101307.28;5101142;27;45364;-72
2022/05/29 03:29:50;;;;;;;;;4.33;4.33;;;;;10.78;63.34;101307.66;5100866;27;45369;-72
2022/05/29 03:32:15;;;;;;;;;3.00;3.00;;;;;10.71;63.43;101302.13;5100995;27;45447;-72
2022/05/29 03:34:41;;;;;;;;;3.00;3.00;;;;;10.66;63.30;101293.81;5100773;27;45337;-72
2022/05/29 03:37:06;;;;;;;;;4.00;4.00;;;;;10.67;63.94;101305.25;5099522;27;45449;-72
2022/05/29 03:39:33;;;;;;;;;5.00;5.00;;;;;10.65;64.21;101309.94;5100732;27;45319;-72
2022/05/29 03:41:58;;;;;;;;;5.33;5.33;;;;;10.58;63.98;101299.94;5100537;27;45437;-72
2022/05/29 03:44:25;;;;;;;;;4.00;4.00;;;;;10.52;64.37;101292.59;5100687;27;45366;-72
2022/05/29 03:46:50;;;;;;;;;4.67;4.00;;;;;10.54;64.42;101298.56;5099441;27;45393;-72
2022/05/29 03:49:19;;;;;;;;;3.00;3.00;;;;;10.51;64.33;101290.09;5100602;27;45266;-72
2022/05/29 03:51:45;;;;;;;;;5.00;5.00;;;;;10.40;64.72;101277.88;5100444;27;45353;-72
2022/05/29 03:54:11;;;;;;;;;4.33;4.33;;;;;10.40;64.67;101292.03;5100499;27;45297;-72
2022/05/29 03:56:37;;;;;;;;;6.00;5.00;;;;;10.41;65.15;101290.19;5099253;27;45457;-72
2022/05/29 03:59:03;;;;;;;;;4.00;4.00;;;;;10.35;64.94;101279.22;5116044;27;46065;-72
2022/05/29 04:01:29;;;;;;;;;3.00;3.00;;;;;10.35;65.04;101283.69;5100383;27;46390;-73
2022/05/29 04:03:54;;;;;;;;;4.00;4.00;;;;;10.39;65.68;101295.69;5099132;27;45345;-72
2022/05/29 04:06:21;;;;;;;;;3.33;3.33;;;;;10.33;65.73;101297.13;5079784;27;45538;-72
2022/05/29 04:14:15;;;;;;;;;2.67;2.67;;;;;10.31;65.76;101291.16;5079715;28;45329;-72
2022/05/29 04:16:41;;;;;;;;;4.00;4.00;;;;;10.16;66.13;101264.34;5079773;28;45252;-72
2022/05/29 04:19:06;;;;;;;;;3.00;3.00;;;;;10.26;66.01;101274.84;5079803;27;45357;-72
2022/05/29 04:21:33;;;;;;;;;4.67;4.67;;;;;10.34;66.01;101292.66;5079536;27;45334;-73
2022/05/29 04:23:58;;;;;;;;;4.00;4.00;;;;;10.29;66.65;101271.03;5080055;27;45267;-72
2022/05/29 04:26:24;;;;;;;;;5.33;5.33;;;;;10.36;66.30;101288.84;5079872;28;45510;-72
2022/05/29 04:28:49;;;;;;;;;4.00;3.00;;;;;10.35;66.51;101281.88;5078783;27;45473;-72
2022/05/29 04:31:15;;;;;;;;;4.00;4.00;;;;;10.35;66.61;101286.34;5077935;28;48443;-72
2022/05/29 04:33:40;;;;;;;;;6.67;5.00;;;;;10.33;66.49;101280.38;5079609;28;45283;-72
2022/05/29 04:36:06;;;;;;;;;4.00;4.00;;;;;10.32;66.74;101284.84;5079641;27;45365;-72
2022/05/29 04:38:32;;;;;;;;;5.00;4.00;;;;;10.36;66.78;101288.03;5079625;27;45479;-72
2022/05/29 04:40:58;;;;;;;;;5.00;4.00;;;;;10.33;66.75;101286.50;5079155;27;45376;-72
2022/05/29 04:43:24;;;;;;;;;4.00;4.00;;;;;10.29;66.56;101271.03;5079713;27;45528;-72
2022/05/29 04:45:56;;;;;;;;;4.00;4.00;;;;;10.30;66.30;101272.72;5079569;28;45417;-72
2022/05/29 04:48:21;;;;;;;;;5.00;5.00;;;;;10.37;66.89;101284.38;5079322;28;45409;-72
2022/05/29 04:50:47;;;;;;;;;3.00;3.00;;;;;10.35;67.04;101278.38;5078999;27;45465;-72
2022/05/29 04:53:13;;;;;;;;;5.00;5.00;;;;;10.36;67.28;101283.53;5079365;28;45366;-72
2022/05/29 04:55:39;;;;;;;;;5.00;4.00;;;;;10.32;66.83;101276.88;5079358;28;45399;-72
2022/05/29 04:58:06;;;;;;;;;6.00;6.00;;;;;10.39;67.35;101278.88;5112258;27;46524;-72
2022/05/29 05:00:32;;;;;;;;;3.00;3.00;;;;;10.34;66.75;101274.91;5079279;27;46133;-72
2022/05/29 05:02:58;;;;;;;;;3.67;3.67;;;;;10.36;67.21;101274.75;5077792;28;45980;-73
2022/05/29 05:05:24;;;;;;;;;4.67;3.67;;;;;10.37;67.70;101279.06;5091433;27;45342;-72
2022/05/29 05:07:49;;;;;;;;;6.00;5.00;;;;;10.45;67.71;101281.75;5099568;27;46227;-72
2022/05/29 05:10:17;;;;;;;;;7.00;6.00;;;;;10.42;67.08;101276.72;5099469;27;45300;-72
2022/05/29 05:12:43;;;;;;;;;7.00;7.00;;;;;10.48;67.48;101284.09;5099418;27;45343;-72
2022/05/29 05:15:11;;;;;;;;;5.33;5.33;;;;;10.54;67.18;101276.50;5098326;27;45383;-72
2022/05/29 05:17:36;;;;;;;;;6.33;5.33;;;;;10.56;67.56;101285.13;5099398;27;45912;-72
2022/05/29 05:20:03;;;;;;;;;6.00;6.00;;;;;10.54;67.47;101276.50;5097864;27;47280;-72
2022/05/29 05:22:29;;;;;;;;;6.00;4.67;;;;;10.53;67.68;101277.50;5099486;27;45222;-72
2022/05/29 05:24:54;;;;;;;;;7.00;7.00;;;;;10.58;67.62;101273.34;5099589;27;45219;-72
2022/05/29 05:27:19;;;;;;;;;8.00;6.00;;;;;10.59;67.58;101272.34;5099325;27;45268;-72
2022/05/29 05:29:45;;;;;;;;;5.67;5.67;;;;;10.69;67.18;101292.66;5097836;27;47527;-72
2022/05/29 05:32:10;;;;;;;;;5.00;5.00;;;;;10.72;67.22;101295.00;5099212;27;45309;-72
2022/05/29 05:34:36;;;;;;;;;6.67;6.67;;;;;10.72;67.65;101279.03;5099486;27;45502;-72
2022/05/29 05:37:02;;;;;;;;;7.00;6.00;;;;;10.71;67.64;101280.00;5079871;27;45572;-72
2022/05/29 05:39:27;;;;;;;;;5.67;4.67;;;;;10.80;67.53;101289.69;5074451;27;45353;-72
2022/05/29 05:41:53;;;;;;;;;5.67;5.67;;;;;10.84;67.89;101284.88;5071461;27;45430;-72
2022/05/29 05:44:20;;;;;;;;;7.00;7.00;;;;;10.76;67.70;101277.72;5081610;27;45396;-72
2022/05/29 05:46:47;;;;;;;;;7.00;6.67;;;;;10.89;67.53;101287.88;5078203;28;47200;-72
2022/05/29 05:49:15;;;;;;;;;8.00;6.33;;;;;10.93;67.47;101283.88;5079945;28;47198;-73
2022/05/29 05:51:41;;;;;;;;;5.00;5.00;;;;;10.95;67.77;101284.56;5081883;27;45385;-72
2022/05/29 05:54:06;;;;;;;;;6.67;6.67;;;;;10.96;67.51;101283.56;5082197;27;45486;-72
2022/05/29 05:56:32;;;;;;;;;6.00;6.00;;;;;10.94;67.33;101271.44;5080331;28;47048;-73
2022/05/29 05:58:57;;;;;;;;;6.67;6.00;;;;;11.09;67.49;101288.44;5082047;27;45255;-72
2022/05/29 06:01:22;;;;;;;;;7.33;6.67;;;;;11.15;67.36;101292.25;5082056;27;45256;-72
2022/05/29 06:03:48;;;;;;;;;5.67;5.67;;;;;11.11;67.58;101288.25;5081005;27;45923;-72
2022/05/29 06:06:13;;;;;;;;;6.33;6.33;;;;;11.24;67.49;101298.41;5102119;27;45344;-72
2022/05/29 06:08:38;;;;;;;;;7.33;6.00;;;;;11.29;67.11;101293.44;5102044;27;45545;-72
2022/05/29 06:11:04;;;;;;;;;5.00;5.00;;;;;11.26;67.05;101288.44;5102138;27;45349;-72
2022/05/29 06:13:29;;;;;;;;;5.00;5.00;;;;;11.37;67.27;101295.25;5102397;27;45569;-72
2022/05/29 06:15:59;;;;;;;;;6.33;6.33;;;;;11.34;66.65;101279.63;5100847;27;46194;-72
2022/05/29 06:18:25;;;;;;;;;6.00;6.00;;;;;11.42;66.59;101295.59;5089390;27;45598;-73
2022/05/29 06:20:56;;;;;;;;;6.67;5.00;;;;;11.47;66.91;101285.28;5081028;27;45304;-73
2022/05/29 06:23:22;;;;;;;;;6.33;6.33;;;;;11.44;66.60;101280.28;5081509;27;45336;-72
2022/05/29 06:25:47;;;;;;;;;6.00;5.00;;;;;11.52;66.92;101292.75;5079832;28;46205;-73
2022/05/29 06:28:12;;;;;;;;;5.33;5.33;;;;;11.59;67.22;101288.44;5081571;27;46203;-75
2022/05/29 06:30:38;;;;;;;;;5.00;5.00;;;;;11.64;67.01;101287.13;5081500;27;45336;-73
2022/05/29 06:33:03;;;;;;;;;4.67;4.67;;;;;11.63;66.37;101272.97;5081642;27;45337;-74
2022/05/29 06:35:29;;;;;;;;;5.33;5.33;;;;;11.72;66.67;101279.94;5081315;27;45476;-72
2022/05/29 06:37:54;;;;;;;;;4.67;4.67;;;;;11.77;66.54;101274.13;5079939;28;48161;-72
2022/05/29 06:40:21;;;;;;;;;3.33;3.33;;;;;11.84;66.22;101269.78;5081292;27;45359;-73
2022/05/29 06:42:47;;;;;;;;;5.67;5.67;;;;;11.95;66.27;101276.59;5081380;27;45314;-72
2022/05/29 06:45:12;;;;;;;;;6.67;5.67;;;;;12.03;66.38;101281.03;5077717;28;46035;-72
2022/05/29 06:47:39;;;;;;;;;4.00;4.00;;;;;12.13;66.08;101294.22;5075016;28;46593;-72
2022/05/29 06:50:06;;;;;;;;;6.33;4.33;;;;;12.17;65.30;101282.19;5080403;27;45303;-72
2022/05/29 06:52:32;;;;;;;;;3.67;3.67;;;;;12.25;65.54;101276.81;5079788;27;45280;-72
2022/05/29 06:54:58;;;;;;;;;7.00;5.00;;;;;12.27;65.31;101275.84;5079772;28;47177;-72
2022/05/29 07:08:52;;;;;;;;;5.67;4.00;;;;;12.58;63.83;101278.53;5106218;27;45270;-72
2022/05/29 07:11:21;;;;;;;;;6.00;6.00;;;;;12.70;63.75;101278.97;5134295;27;45360;-72
2022/05/29 07:13:47;;;;;;;;;4.00;4.00;;;;;12.72;63.51;101273.47;5101563;27;45327;-72
2022/05/29 07:16:15;;;;;;;;;4.67;4.67;;;;;12.84;63.33;101285.38;5101149;27;45337;-73
2022/05/29 07:18:40;;;;;;;;;3.00;2.00;;;;;12.96;62.48;101272.47;5101079;27;46465;-72
2022/05/29 07:21:06;;;;;;;;;1.00;1.00;;;;;13.06;61.73;101274.94;5100882;27;45323;-72
2022/05/29 07:23:32;;;;;;;;;0.67;0.67;;;;;13.07;61.11;101273.91;5101463;27;45284;-72
2022/05/29 07:25:58;;;;;;;;;2.00;1.33;;;;;13.13;60.85;101273.19;5100781;27;45298;-72
2022/05/29 07:28:23;;;;;;;;;3.00;3.00;;;;;13.20;61.22;101267.97;5080343;27;45438;-72
2022/05/29 07:30:50;;;;;;;;;3.00;2.00;;;;;13.22;61.12;101260.63;5060195;28;45312;-72
2022/05/29 07:33:16;;;;;;;;;3.00;2.00;;;;;13.27;60.85;101262.75;5060550;28;45332;-72
2022/05/29 07:35:41;;;;;;;;;3.00;2.00;;;;;13.39;60.54;101266.63;5060774;28;45346;-73
2022/05/29 07:38:07;;;;;;;;;2.33;2.33;;;;;13.47;60.48;101265.75;5061220;28;45676;-73
2022/05/29 07:40:33;;;;;;;;;2.67;2.67;;;;;13.60;60.65;101269.69;5061690;28;45361;-73
2022/05/29 07:45:43;;;;;;;;;1.67;1.67;;;;;13.91;59.37;101267.88;5060785;28;45366;-72
2022/05/29 07:48:08;;;;;;;;;2.33;2.33;;;;;14.01;58.28;101269.25;5058329;28;45955;-72
2022/05/29 07:50:34;;;;;;;;;3.00;2.00;;;;;13.95;58.52;101255.81;5058287;28;45298;-73
2022/05/29 07:52:59;;;;;;;;;2.00;2.00;;;;;14.05;57.10;101260.88;5058684;28;45941;-72
2022/05/29 07:55:25;;;;;;;;;1.33;1.33;;;;;14.06;56.88;101263.34;5058443;28;45489;-73
2022/05/29 07:57:51;;;;;;;;;1.33;1.33;;;;;14.14;56.60;101267.78;5058401;28;45384;-72
2022/05/29 08:00:19;;;;;;;;;4.00;4.00;;;;;14.19;56.99;101268.03;5058190;28;45226;-72
2022/05/29 08:02:44;;;;;;;;;1.67;1.67;;;;;14.29;56.42;101259.75;5057907;28;45355;-73
2022/05/29 08:05:13;;;;;;;;;2.00;2.00;;;;;14.37;56.24;101256.97;5082827;27;45350;-72
2022/05/29 08:07:39;;;;;;;;;3.00;2.00;;;;;14.33;56.38;101261.03;5100412;27;45472;-72
2022/05/29 08:10:05;;;;;;;;;1.00;1.00;;;;;14.26;55.15;101244.06;5099097;27;45376;-72
2022/05/29 08:12:31;;;;;;;;;2.67;2.67;;;;;14.32;54.71;101258.53;5076522;27;45347;-72
2022/05/29 08:14:56;;;;;;;;;1.67;1.33;;;;;14.33;54.35;101263.69;5079261;27;45299;-72
2022/05/29 08:17:21;;;;;;;;;2.33;1.67;;;;;14.26;54.39;101252.94;5079362;28;45319;-72
2022/05/29 08:19:47;;;;;;;;;2.00;0.00;;;;;14.25;53.63;101255.78;5079374;27;45290;-72
2022/05/29 08:22:12;;;;;;;;;0.00;0.00;;;;;14.22;53.59;101253.50;5079435;27;45297;-72
2022/05/29 08:30:38;;;;;;;;;1.00;1.00;;;;;14.19;52.63;101260.03;5075413;27;45435;-72
2022/05/29 08:33:06;;;;;;;;;2.00;2.00;;;;;14.22;53.06;101234.78;5079318;28;45341;-72
2022/05/29 08:35:33;;;;;;;;;2.00;1.00;;;;;14.45;53.14;101245.34;5078572;27;45839;-72
2022/05/29 08:38:00;;;;;;;;;0.67;0.67;;;;;14.57;52.04;101229.63;5079565;27;46596;-74
2022/05/29 08:40:27;;;;;;;;;1.00;0.00;;;;;14.75;51.80;101242.56;5079470;27;45390;-72
2022/05/29 08:42:53;;;;;;;;;1.67;1.67;;;;;14.86;51.28;101235.09;5095084;27;45368;-72
2022/05/29 08:45:19;;;;;;;;;1.00;1.00;;;;;15.04;50.60;101225.78;5112291;27;45893;-72
2022/05/29 08:47:48;;;;;;;;;1.33;1.00;;;;;15.25;49.31;101232.97;5078718;28;45231;-72
2022/05/29 08:50:23;;;;;;;;;0.00;0.00;;;;;15.33;49.11;101213.25;5075245;28;45435;-73
2022/05/29 08:53:03;;;;;;;;;0.00;0.00;;;;;15.52;47.54;101228.66;5077713;28;45375;-73
2022/05/29 08:55:45;;;;;;;;;1.33;1.33;;;;;15.63;47.99;101232.63;5079344;27;45315;-74
2022/05/29 08:58:18;;;;;;;;;0.00;0.00;;;;;15.68;48.40;101234.72;5078719;27;45520;-74
2022/05/29 09:01:12;;;;;;;;;0.00;0.00;;;;;15.65;48.01;101241.31;5076609;28;45415;-74
2022/05/29 09:03:50;;;;;;;;;1.33;0.33;;;;;15.57;46.82;101236.13;5078952;27;45337;-75
2022/05/29 09:06:28;;;;;;;;;1.00;0.00;;;;;15.55;46.34;101234.63;5057284;28;45870;-73
2022/05/29 09:09:05;;;;;;;;;0.00;0.00;;;;;15.50;47.31;101224.50;5058415;28;45254;-72
2022/05/29 09:11:47;;;;;;;;;0.33;0.33;;;;;15.38;47.50;101219.69;5057295;28;45341;-73
2022/05/29 09:14:45;;;;;;;;;0.00;0.00;;;;;15.41;47.66;101218.47;5057673;28;45292;-72
2022/05/29 09:17:35;;;;;;;;;0.00;0.00;;;;;15.50;47.86;101217.28;5058666;27;45363;-72
2022/05/29 09:20:02;;;;;;;;;0.33;0.33;;;;;15.50;47.04;101211.94;5060796;28;49262;-72
2022/05/29 09:22:41;;;;;;;;;2.00;0.00;;;;;15.65;47.18;101211.84;5062328;28;45325;-73
2022/05/29 09:25:21;;;;;;;;;0.00;0.00;;;;;15.83;47.37;101215.03;5062309;28;45319;-74
2022/05/29 09:27:47;;;;;;;;;2.00;0.67;;;;;15.84;46.74;101200.59;5060423;28;46695;-72
2022/05/29 09:30:14;;;;;;;;;0.33;0.00;;;;;15.96;46.73;101215.13;5062146;28;46095;-73
2022/05/29 09:32:56;;;;;;;;;2.67;2.67;;;;;16.00;46.66;101204.81;5062206;28;45177;-75
2022/05/29 09:35:24;;;;;;;;;0.00;0.00;;;;;16.20;44.17;101207.59;5062152;28;45260;-72
2022/05/29 09:38:04;;;;;;;;;1.00;1.00;;;;;16.22;45.96;101192.13;5061878;28;45292;-72
2022/05/29 09:40:46;;;;;;;;;1.00;1.00;;;;;16.34;45.23;101210.34;5060512;28;47423;-72
2022/05/29 09:43:14;;;;;;;;;2.00;2.00;;;;;16.20;45.09;101204.09;5074158;28;45461;-72
2022/05/29 09:45:39;;;;;;;;;1.00;1.00;;;;;16.13;45.59;101206.72;5080598;28;45324;-72
2022/05/29 09:51:14;;;;;;;;;2.00;0.00;;;;;16.11;45.43;101212.31;5081752;28;45384;-72
2022/05/29 09:53:56;;;;;;;;;1.00;1.00;;;;;16.03;45.16;101205.25;5080830;28;45271;-74
2022/05/29 09:56:27;;;;;;;;;1.33;1.00;;;;;15.93;44.30;101204.78;5082060;28;45335;-72
2022/05/29 09:58:57;;;;;;;;;2.00;2.00;;;;;15.90;44.68;101200.63;5082080;27;45329;-73
2022/05/29 10:01:34;;;;;;;;;2.00;2.00;;;;;15.94;44.76;101186.81;5080575;28;48916;-72
2022/05/29 10:04:02;;;;;;;;;0.00;0.00;;;;;16.18;44.38;101195.41;5092834;27;45201;-72
2022/05/29 10:06:30;;;;;;;;;0.00;0.00;;;;;16.31;43.81;101176.69;5117938;27;45393;-73
2022/05/29 10:09:12;;;;;;;;;1.33;1.33;;;;;16.60;43.48;101181.91;5101812;27;45411;-73
2022/05/29 10:11:39;;;;;;;;;0.67;0.67;;;;;16.84;43.18;101175.13;5101739;27;45351;-72
2022/05/29 10:14:36;;;;;;;;;1.00;1.00;;;;;17.03;43.55;101164.63;5100819;27;45432;-72
2022/05/29 10:17:12;;;;;;;;;0.00;0.00;;;;;17.26;42.53;101169.56;5102451;27;45313;-72
2022/05/29 10:19:45;;;;;;;;;1.00;1.00;;;;;17.43;41.50;101155.69;5101897;27;45352;-72
2022/05/29 10:22:27;;;;;;;;;1.00;1.00;;;;;17.49;41.07;101144.13;5101874;27;45980;-73
2022/05/29 10:24:54;;;;;;;;;0.33;0.33;;;;;17.73;41.38;101149.81;5102142;27;45440;-73
2022/05/29 10:27:30;;;;;;;;;1.67;1.67;;;;;18.03;41.57;101160.06;5102035;27;45857;-73
2022/05/29 10:30:28;;;;;;;;;0.67;0.00;;;;;18.34;41.15;101168.38;5134971;27;47100;-75
2022/05/29 10:33:09;;;;;;;;;0.00;0.00;;;;;18.40;40.05;101162.16;5113879;27;46702;-73
2022/05/29 10:35:38;;;;;;;;;1.00;1.00;;;;;18.31;40.03;101168.81;5100334;27;45298;-74
2022/05/29 10:38:17;;;;;;;;;0.00;0.00;;;;;18.05;40.38;101144.50;5102164;27;45258;-72
2022/05/29 10:40:43;;;;;;;;;0.00;0.00;;;;;17.93;40.50;101151.63;5100158;27;47184;-73
2022/05/29 10:43:09;;;;;;;;;1.00;0.00;;;;;17.79;39.39;101145.47;5101817;27;45422;-76
2022/05/29 10:45:45;;;;;;;;;1.00;1.00;;;;;17.69;39.39;101158.53;5100330;27;45913;-74
2022/05/29 10:48:21;;;;;;;;;0.00;0.00;;;;;17.53;40.42;101158.78;5102076;27;45426;-74
2022/05/29 10:50:59;;;;;;;;;0.67;0.67;;;;;17.47;40.48;101148.88;5101467;27;45605;-73
2022/05/29 10:53:30;;;;;;;;;1.67;1.67;;;;;17.63;41.69;101147.56;5101630;27;45326;-76
2022/05/29 10:56:07;;;;;;;;;3.67;3.67;;;;;17.75;41.01;101155.81;5101676;27;45334;-74
2022/05/29 10:58:44;;;;;;;;;0.67;0.67;;;;;17.74;40.59;101148.78;5101802;27;45357;-75
2022/05/29 11:04:30;;;;;;;;;3.00;2.00;;;;;17.69;40.54;101151.28;5062569;27;45272;-73
2022/05/29 11:07:04;;;;;;;;;1.00;1.00;;;;;17.74;40.37;101139.88;5059070;28;45633;-73
2022/05/29 11:09:46;;;;;;;;;0.00;0.00;;;;;17.66;39.50;101133.72;5059381;28;45343;-73
2022/05/29 11:12:21;;;;;;;;;1.00;1.00;;;;;17.81;39.60;101134.50;5074279;28;46445;-74
2022/05/29 11:15:00;;;;;;;;;0.00;0.00;;;;;17.85;39.91;101117.72;5059033;28;45434;-73
2022/05/29 11:17:25;;;;;;;;;2.00;2.00;;;;;17.97;38.29;101123.25;5059095;28;45276;-72
2022/05/29 11:20:00;;;;;;;;;1.67;0.00;;;;;17.99;37.91;101123.84;5058898;28;45731;-73
2022/05/29 11:22:38;;;;;;;;;0.00;0.00;;;;;18.03;38.01;101119.72;5058998;28;45791;-73
2022/05/29 11:25:31;;;;;;;;;0.67;0.67;;;;;18.19;37.79;101114.88;5074447;27;47383;-72
2022/05/29 11:28:07;;;;;;;;;1.00;1.00;;;;;18.53;37.87;101117.38;5058715;28;45411;-74
2022/05/29 11:31:07;;;;;;;;;0.67;0.67;;;;;18.83;38.08;101116.72;5062492;28;46729;-73
2022/05/29 11:34:14;;;;;;;;;0.00;0.00;;;;;19.13;38.53;101099.88;5079209;28;46238;-74
2022/05/29 11:36:48;;;;;;;;;0.00;0.00;;;;;19.50;37.22;101115.22;5080258;27;46019;-72
2022/05/29 11:39:24;;;;;;;;;0.00;0.00;;;;;19.62;36.64;101109.91;5078365;28;46416;-74
2022/05/29 11:42:31;;;;;;;;;0.00;0.00;;;;;19.68;36.82;101105.47;5079095;28;45444;-72
2022/05/29 11:51:07;;;;;;;;;0.00;0.00;;;;;19.62;36.19;101106.38;5080485;27;45309;-72
2022/05/29 11:51:18;;;;;;;;;1.33;1.33;;;;;19.44;36.36;101089.19;5071201;27;45386;-72
2022/05/29 11:54:10;;;;;;;;;0.00;0.00;;;;;19.47;36.13;101098.69;5072798;27;45323;-72
2022/05/29 11:56:48;;;;;;;;;1.00;1.00;;;;;19.52;35.32;101096.94;5075973;28;45417;-72
2022/05/29 11:59:24;;;;;;;;;1.67;1.67;;;;;19.77;36.55;101092.50;5077049;27;48642;-71
2022/05/29 12:02:03;;;;;;;;;0.33;0.33;;;;;20.10;36.68;101085.88;5059698;28;45429;-72
2022/05/29 12:04:43;;;;;;;;;0.00;0.00;;;;;20.39;36.22;101088.75;5071736;27;45429;-77
2022/05/29 12:07:17;;;;;;;;;0.33;0.33;;;;;20.50;35.92;101078.22;5100344;27;45534;-72
2022/05/29 12:09:52;;;;;;;;;0.67;0.67;;;;;20.45;35.59;101087.00;5099045;27;47519;-72
2022/05/29 12:12:25;;;;;;;;;0.33;0.33;;;;;20.35;35.58;101089.47;5098877;27;46003;-72
2022/05/29 12:15:02;;;;;;;;;0.00;0.00;;;;;20.25;35.05;101082.75;5116454;27;45781;-72
2022/05/29 12:17:43;;;;;;;;;0.33;0.00;;;;;20.10;34.77;101058.88;5133332;27;47224;-73
2022/05/29 12:20:15;;;;;;;;;0.00;0.00;;;;;20.22;34.91;101069.72;5098652;27;48074;-72
2022/05/29 12:22:56;;;;;;;;;0.67;0.67;;;;;20.22;35.01;101067.00;5100602;27;45329;-72